Brooklyn, NY (11203)

11:14 PM EST on December 10, 2016 (GMT -0500)
Crown Heights | | Change Station

Elev 10 ft 40.66 °N, 73.91 °W | Updated 6 minutes ago

Clear
Clear
30.9 °F
Feels Like 31 °F
N
3.0
Wind Variable Wind from NW
Gusts 9.0 mph

Today
High -- | Low -- °F
--% Chance of Precip.
Yesterday
High -- | Low -- °F
Precip. -- in
Pressure 30.48 in
Visibility -9999.0 miles
Clouds Clear
Windchill 31 °F
Dew Point 18 °F
Humidity 58%
Rainfall 0.00 in
Snow Depth Not available.
7:08 AM 4:28 PM
Waxing Gibbous, 88% visible
METAR KJRB 110356Z AUTO 25004KT CLR 00/M07 A3048 RMK AO2 SLP321 T00001072 PWINO FZRANO $
Pressure 30.48 in
Visibility -9999.0 miles
Clouds Clear
Windchill 31 °F
Dew Point 18 °F
Humidity 58%
Rainfall 0.00 in
Snow Depth Not available.
7:08 AM 4:28 PM
Waxing Gibbous, 88% visible
METAR KJRB 110356Z AUTO 25004KT CLR 00/M07 A3048 RMK AO2 SLP321 T00001072 PWINO FZRANO $

10-Day Weather Forecast

Almanac

Astronomy

Dec. 10, 2016 Rise Set
Actual Time
Civil Twilight
Nautical Twilight
Astronomical Twilight
Moon
Length of Visible Light
Length of Day
Tomorrow will be .
, % of the Moon is Illuminated

Today's Extremes

State Highs State Lows

Community

WunderPhotos

Upload Photos

1,956,704 photos uploaded!

WunderBlog® & News

Nearby

Air Quality

  Air Quality AQ Index Pollutant
Not available.

Snow Depth

Station Depth Elevation

Earthquake Activity

City Distance Mag. Time & Date
Minimum magnitude displayed is 2.5.

Coastal Water Temperatures

Place Temperature

Stations

Nearby Weather Stations

Station Location Temp. Windchill Dew Point Humidity Wind Precip. Elev Updated Type
                   

Watches & Warnings

There are currently no watches in effect.